Time;durP1;ratioP1;P1;durP2;ratioP2;P2;SDS_P1;SDS_P2;PMS_P1;PMS_P2;Temp;Humidity;BMP_temperature;BMP_pressure;BME280_temperature;BME280_humidity;BME280_pressure;Samples;Min_cycle;Max_cycle;Signal;HPM_P1;HPM_P2
2021/01/08 00:00:19;;;;;;;23.83;12.07;;;;;;;;;;5028086;28;20021;-47
2021/01/08 00:02:45;;;;;;;26.27;13.10;;;;;;;;;;5028907;28;20037;-48
2021/01/08 00:05:11;;;;;;;23.17;11.65;;;;;;;;;;5012157;28;20029;-47
2021/01/08 00:07:37;;;;;;;25.00;12.27;;;;;;;;;;5020704;28;20055;-49
2021/01/08 00:10:04;;;;;;;26.08;11.65;;;;;;;;;;5028726;28;20110;-52
2021/01/08 00:12:31;;;;;;;20.35;12.02;;;;;;;;;;5028618;28;20029;-48
2021/01/08 00:14:57;;;;;;;25.42;12.68;;;;;;;;;;5028705;28;20128;-47
2021/01/08 00:17:25;;;;;;;25.02;13.02;;;;;;;;;;5028570;28;20025;-51
2021/01/08 00:19:52;;;;;;;21.80;12.07;;;;;;;;;;5028532;28;20034;-50
2021/01/08 00:22:17;;;;;;;25.02;12.45;;;;;;;;;;5028079;28;20036;-49
2021/01/08 00:24:43;;;;;;;24.50;12.80;;;;;;;;;;5028365;28;20025;-50
2021/01/08 00:27:09;;;;;;;24.50;12.50;;;;;;;;;;5027846;28;20034;-48
2021/01/08 00:29:35;;;;;;;22.83;13.02;;;;;;;;;;5028230;28;20477;-50
2021/01/08 00:32:01;;;;;;;25.10;13.15;;;;;;;;;;5028294;28;20028;-50
2021/01/08 00:34:27;;;;;;;26.88;13.68;;;;;;;;;;5018409;28;20091;-49
2021/01/08 00:36:54;;;;;;;23.38;12.93;;;;;;;;;;5016575;28;20018;-49
2021/01/08 00:39:21;;;;;;;23.92;12.75;;;;;;;;;;5028362;28;20029;-48
2021/01/08 00:41:47;;;;;;;27.48;13.80;;;;;;;;;;5028044;28;20046;-47
2021/01/08 00:44:13;;;;;;;29.00;13.95;;;;;;;;;;5027683;28;20677;-50
2021/01/08 00:46:40;;;;;;;29.67;14.13;;;;;;;;;;5027835;28;20029;-50
2021/01/08 00:49:07;;;;;;;27.77;14.07;;;;;;;;;;5027223;28;20021;-47
2021/01/08 00:51:33;;;;;;;25.05;13.68;;;;;;;;;;5024523;28;20754;-50
2021/01/08 00:53:59;;;;;;;33.35;14.20;;;;;;;;;;5016289;28;20030;-50
2021/01/08 00:56:25;;;;;;;26.77;13.50;;;;;;;;;;5027287;28;20397;-49
2021/01/08 00:58:51;;;;;;;27.02;13.90;;;;;;;;;;5027494;28;20036;-50
2021/01/08 01:01:18;;;;;;;25.83;13.18;;;;;;;;;;5028059;28;20021;-50
2021/01/08 01:03:44;;;;;;;30.13;14.82;;;;;;;;;;5026089;28;20289;-47
2021/01/08 01:06:10;;;;;;;30.13;15.02;;;;;;;;;;5027433;28;20034;-50
2021/01/08 01:08:36;;;;;;;29.45;14.10;;;;;;;;;;5021062;28;20029;-49
2021/01/08 01:11:02;;;;;;;28.55;15.05;;;;;;;;;;5007822;28;20233;-49
2021/01/08 01:13:28;;;;;;;28.85;14.93;;;;;;;;;;5008050;28;20120;-52
2021/01/08 01:15:54;;;;;;;27.55;14.13;;;;;;;;;;5021295;28;20018;-47
2021/01/08 01:18:21;;;;;;;26.65;14.63;;;;;;;;;;5026809;28;20374;-51
2021/01/08 01:20:47;;;;;;;23.92;14.07;;;;;;;;;;5027279;28;20086;-50
2021/01/08 01:23:13;;;;;;;27.25;13.75;;;;;;;;;;5027587;28;20483;-47
2021/01/08 01:25:39;;;;;;;27.17;13.82;;;;;;;;;;5026764;28;20034;-53
2021/01/08 01:28:05;;;;;;;28.38;14.70;;;;;;;;;;5027422;28;20284;-47
2021/01/08 01:30:32;;;;;;;26.85;14.65;;;;;;;;;;5026837;28;20041;-48
2021/01/08 01:33:00;;;;;;;26.55;14.02;;;;;;;;;;5027036;28;20037;-51
2021/01/08 01:35:26;;;;;;;27.10;13.95;;;;;;;;;;5017244;28;20040;-50
2021/01/08 01:37:53;;;;;;;29.83;15.57;;;;;;;;;;5026438;28;20057;-48
2021/01/08 01:40:19;;;;;;;28.42;14.77;;;;;;;;;;5026319;28;20407;-47
2021/01/08 01:42:46;;;;;;;27.15;14.25;;;;;;;;;;5027282;28;20025;-47
2021/01/08 01:45:12;;;;;;;27.65;14.88;;;;;;;;;;5025650;28;20033;-48
2021/01/08 01:47:38;;;;;;;30.13;14.88;;;;;;;;;;5027034;28;20033;-48
2021/01/08 01:50:05;;;;;;;30.33;14.02;;;;;;;;;;5026272;28;20037;-49
2021/01/08 01:52:31;;;;;;;28.45;15.13;;;;;;;;;;5026447;28;20040;-48
2021/01/08 01:54:57;;;;;;;26.80;14.32;;;;;;;;;;5026426;28;20025;-51
2021/01/08 01:57:23;;;;;;;27.30;15.05;;;;;;;;;;5026965;28;20087;-50
2021/01/08 01:59:49;;;;;;;27.13;14.32;;;;;;;;;;5026028;28;20033;-49
2021/01/08 02:02:26;;;;;;;26.90;14.55;;;;;;;;;;5026754;28;20034;-52
2021/01/08 02:04:54;;;;;;;26.40;14.10;;;;;;;;;;5028425;28;20033;-51
2021/01/08 02:07:21;;;;;;;29.23;14.55;;;;;;;;;;5031267;28;20108;-51
2021/01/08 02:09:47;;;;;;;29.67;14.48;;;;;;;;;;5029652;28;20029;-48
2021/01/08 02:12:13;;;;;;;27.10;14.23;;;;;;;;;;5030966;28;20033;-49
2021/01/08 02:14:42;;;;;;;26.50;14.25;;;;;;;;;;5030542;28;20025;-48
2021/01/08 02:17:08;;;;;;;25.67;14.15;;;;;;;;;;5030813;28;20033;-51
2021/01/08 02:19:40;;;;;;;29.42;14.55;;;;;;;;;;5030278;28;20029;-51
2021/01/08 02:22:14;;;;;;;23.65;13.02;;;;;;;;;;5030172;28;20492;-49
2021/01/08 02:24:46;;;;;;;29.17;14.50;;;;;;;;;;5030442;28;20430;-48
2021/01/08 02:27:12;;;;;;;27.58;14.85;;;;;;;;;;5030363;28;20039;-51
2021/01/08 02:29:39;;;;;;;29.92;14.65;;;;;;;;;;5030419;28;20449;-49
2021/01/08 02:32:05;;;;;;;24.17;13.50;;;;;;;;;;5029991;28;20063;-49
2021/01/08 02:34:32;;;;;;;25.77;13.93;;;;;;;;;;5042443;28;20029;-52
2021/01/08 02:36:58;;;;;;;25.52;14.63;;;;;;;;;;5033509;28;20034;-47
2021/01/08 02:39:24;;;;;;;25.55;14.07;;;;;;;;;;5017360;28;20044;-49
2021/01/08 02:41:51;;;;;;;27.88;14.60;;;;;;;;;;5014544;28;20071;-51
2021/01/08 02:44:18;;;;;;;28.35;14.75;;;;;;;;;;5030446;28;20039;-49
2021/01/08 02:46:45;;;;;;;23.73;13.15;;;;;;;;;;5029456;28;20380;-48
2021/01/08 02:49:11;;;;;;;26.75;14.15;;;;;;;;;;5029957;28;20032;-51
2021/01/08 02:51:37;;;;;;;30.30;14.57;;;;;;;;;;5030432;28;20029;-50
2021/01/08 02:54:04;;;;;;;30.23;14.25;;;;;;;;;;5029468;28;20468;-50
2021/01/08 02:56:33;;;;;;;23.88;13.57;;;;;;;;;;5029689;28;20029;-51
2021/01/08 02:58:59;;;;;;;26.42;14.00;;;;;;;;;;5030541;28;20021;-51
2021/01/08 03:01:25;;;;;;;28.42;14.48;;;;;;;;;;5029744;28;20055;-48
2021/01/08 03:03:51;;;;;;;28.13;14.38;;;;;;;;;;5029363;28;20049;-53
2021/01/08 03:06:17;;;;;;;24.63;13.43;;;;;;;;;;5030066;28;20032;-50
2021/01/08 03:08:44;;;;;;;27.67;13.02;;;;;;;;;;5022822;28;20030;-49
2021/01/08 03:11:10;;;;;;;27.67;13.73;;;;;;;;;;5029653;28;20413;-48
2021/01/08 03:13:38;;;;;;;29.70;14.50;;;;;;;;;;5029650;28;20029;-49
2021/01/08 03:16:04;;;;;;;28.92;14.73;;;;;;;;;;5028730;28;20037;-51
2021/01/08 03:18:30;;;;;;;28.27;14.20;;;;;;;;;;5030118;28;20036;-50
2021/01/08 03:20:56;;;;;;;27.45;14.35;;;;;;;;;;5028904;28;20025;-50
2021/01/08 03:23:22;;;;;;;30.90;15.98;;;;;;;;;;5025131;28;20033;-51
2021/01/08 03:25:48;;;;;;;29.95;14.50;;;;;;;;;;5015246;28;20033;-48
2021/01/08 03:28:14;;;;;;;27.98;14.65;;;;;;;;;;5029569;28;20043;-47
2021/01/08 03:30:40;;;;;;;28.83;14.95;;;;;;;;;;5029150;28;20025;-51
2021/01/08 03:33:06;;;;;;;30.52;15.35;;;;;;;;;;5030326;28;20116;-50
2021/01/08 03:35:32;;;;;;;25.48;14.57;;;;;;;;;;5049220;28;20021;-48
2021/01/08 03:37:58;;;;;;;27.42;14.82;;;;;;;;;;5029892;28;20028;-51
2021/01/08 03:40:24;;;;;;;31.52;14.57;;;;;;;;;;5029689;28;20446;-49
2021/01/08 03:42:49;;;;;;;31.17;16.23;;;;;;;;;;5029164;28;20034;-48
2021/01/08 03:45:15;;;;;;;28.23;15.43;;;;;;;;;;5029279;28;20033;-50
2021/01/08 03:47:41;;;;;;;28.55;14.02;;;;;;;;;;5027923;28;20420;-49
2021/01/08 03:50:08;;;;;;;29.60;15.05;;;;;;;;;;5029015;28;20044;-50
2021/01/08 03:52:34;;;;;;;28.25;15.00;;;;;;;;;;5029277;28;20030;-50
2021/01/08 03:54:59;;;;;;;28.75;15.30;;;;;;;;;;5024477;28;20029;-48
2021/01/08 03:57:25;;;;;;;29.02;15.57;;;;;;;;;;5028824;28;20017;-50
2021/01/08 03:59:52;;;;;;;30.17;15.32;;;;;;;;;;5029064;28;20030;-49
2021/01/08 04:02:18;;;;;;;27.10;14.90;;;;;;;;;;5028628;28;20032;-47
2021/01/08 04:04:44;;;;;;;26.98;13.82;;;;;;;;;;5027551;28;20458;-53
2021/01/08 04:07:10;;;;;;;31.55;15.82;;;;;;;;;;5028955;28;20659;-48
2021/01/08 04:09:36;;;;;;;27.58;14.32;;;;;;;;;;5028273;28;20026;-49
2021/01/08 04:12:02;;;;;;;31.35;15.30;;;;;;;;;;5029098;28;20091;-53
2021/01/08 04:14:28;;;;;;;28.73;15.00;;;;;;;;;;5028777;28;20064;-48
2021/01/08 04:16:54;;;;;;;29.25;14.68;;;;;;;;;;5027869;28;20029;-52
2021/01/08 04:19:20;;;;;;;29.85;16.00;;;;;;;;;;5028025;28;20025;-49
2021/01/08 04:21:46;;;;;;;26.50;14.45;;;;;;;;;;5028666;28;20056;-48
2021/01/08 04:24:13;;;;;;;31.25;15.57;;;;;;;;;;5018014;28;20033;-52
2021/01/08 04:26:39;;;;;;;27.35;14.63;;;;;;;;;;5021019;28;20061;-52
2021/01/08 04:29:05;;;;;;;28.85;14.68;;;;;;;;;;5026997;28;20029;-48
2021/01/08 04:31:31;;;;;;;30.75;14.90;;;;;;;;;;5028244;28;20026;-50
2021/01/08 04:33:57;;;;;;;27.63;14.23;;;;;;;;;;5035658;28;20032;-49
2021/01/08 04:36:23;;;;;;;26.90;14.82;;;;;;;;;;5041134;28;20022;-48
2021/01/08 04:38:49;;;;;;;29.55;16.42;;;;;;;;;;5028158;28;20022;-50
2021/01/08 04:41:16;;;;;;;28.83;14.43;;;;;;;;;;5027620;28;20715;-48
2021/01/08 04:43:43;;;;;;;32.78;16.30;;;;;;;;;;5028137;28;20021;-52
2021/01/08 04:46:21;;;;;;;28.20;14.70;;;;;;;;;;5027722;28;20029;-50
2021/01/08 04:48:47;;;;;;;30.73;16.30;;;;;;;;;;5027518;28;20108;-50
2021/01/08 04:51:14;;;;;;;31.17;15.32;;;;;;;;;;5028237;28;20462;-47
2021/01/08 04:53:41;;;;;;;30.40;14.93;;;;;;;;;;5021680;28;20030;-47
2021/01/08 04:56:11;;;;;;;29.58;15.20;;;;;;;;;;5017099;28;20477;-51
2021/01/08 04:58:37;;;;;;;31.13;14.63;;;;;;;;;;5027713;28;20771;-48
2021/01/08 05:01:04;;;;;;;29.85;14.32;;;;;;;;;;5027768;28;20026;-49
2021/01/08 05:03:30;;;;;;;30.40;15.40;;;;;;;;;;5027297;28;20378;-53
2021/01/08 05:05:57;;;;;;;29.70;15.48;;;;;;;;;;5028780;28;20389;-56
2021/01/08 05:08:23;;;;;;;28.10;14.65;;;;;;;;;;5028744;28;20025;-51
2021/01/08 05:10:49;;;;;;;31.63;15.88;;;;;;;;;;5028492;28;20505;-52
2021/01/08 05:13:16;;;;;;;30.67;16.17;;;;;;;;;;5029073;28;20041;-55
2021/01/08 05:15:50;;;;;;;34.67;15.10;;;;;;;;;;5028522;28;20550;-51
2021/01/08 05:18:16;;;;;;;29.50;15.30;;;;;;;;;;5027662;28;20501;-53
2021/01/08 05:20:42;;;;;;;31.58;15.80;;;;;;;;;;5028029;28;20025;-55
2021/01/08 05:23:10;;;;;;;31.25;16.27;;;;;;;;;;5028837;28;20028;-56
2021/01/08 05:25:36;;;;;;;28.65;15.20;;;;;;;;;;5028064;28;20036;-56
2021/01/08 05:28:04;;;;;;;33.53;16.55;;;;;;;;;;5027639;28;20032;-53
2021/01/08 05:30:30;;;;;;;33.30;16.58;;;;;;;;;;5008855;28;20393;-52
2021/01/08 05:32:57;;;;;;;30.90;15.93;;;;;;;;;;5020553;28;20116;-55
2021/01/08 05:35:24;;;;;;;27.70;14.75;;;;;;;;;;5047402;28;20091;-53
2021/01/08 05:37:52;;;;;;;33.28;16.63;;;;;;;;;;5031289;28;20568;-56
2021/01/08 05:40:23;;;;;;;31.45;16.40;;;;;;;;;;5027561;28;20029;-57
2021/01/08 05:42:53;;;;;;;34.47;16.95;;;;;;;;;;5027512;28;20032;-57
2021/01/08 05:45:19;;;;;;;30.85;15.25;;;;;;;;;;5028052;28;20390;-55
2021/01/08 05:47:45;;;;;;;31.98;15.73;;;;;;;;;;5027775;28;20072;-56
2021/01/08 05:50:12;;;;;;;35.08;17.10;;;;;;;;;;5027861;28;20029;-52
2021/01/08 05:52:42;;;;;;;33.88;16.42;;;;;;;;;;5027739;28;20040;-53
2021/01/08 05:55:11;;;;;;;32.47;16.30;;;;;;;;;;5023382;28;20044;-54
2021/01/08 05:57:37;;;;;;;35.63;17.25;;;;;;;;;;5028352;28;20082;-56
2021/01/08 06:00:07;;;;;;;33.28;15.73;;;;;;;;;;5027547;28;20033;-54
2021/01/08 06:02:34;;;;;;;29.60;16.23;;;;;;;;;;5027522;28;20473;-51
2021/01/08 06:05:00;;;;;;;34.13;16.00;;;;;;;;;;5026426;28;20041;-55
2021/01/08 06:07:29;;;;;;;32.92;16.35;;;;;;;;;;5024988;28;20075;-54
2021/01/08 06:10:01;;;;;;;33.70;16.98;;;;;;;;;;5023447;28;20033;-56
2021/01/08 06:12:31;;;;;;;35.83;16.33;;;;;;;;;;5027887;28;20033;-51
2021/01/08 06:14:57;;;;;;;34.58;15.98;;;;;;;;;;5026664;28;20037;-54
2021/01/08 06:17:23;;;;;;;30.92;15.43;;;;;;;;;;5026511;28;20022;-57
2021/01/08 06:19:58;;;;;;;29.67;15.40;;;;;;;;;;5026658;28;20113;-54
2021/01/08 06:22:24;;;;;;;32.55;16.83;;;;;;;;;;5027160;28;20029;-56
2021/01/08 06:24:54;;;;;;;30.90;14.88;;;;;;;;;;5023766;28;20033;-55
2021/01/08 06:27:23;;;;;;;32.70;16.60;;;;;;;;;;5023514;28;20033;-53
2021/01/08 06:30:00;;;;;;;34.25;17.02;;;;;;;;;;5026731;28;20128;-56
2021/01/08 06:32:28;;;;;;;29.65;15.52;;;;;;;;;;5025574;28;20813;-55
2021/01/08 06:34:54;;;;;;;30.55;16.23;;;;;;;;;;5029459;28;20037;-52
2021/01/08 06:37:24;;;;;;;31.27;16.20;;;;;;;;;;5025976;28;20033;-52
2021/01/08 06:39:56;;;;;;;34.55;16.83;;;;;;;;;;5007394;28;20030;-55
2021/01/08 06:42:27;;;;;;;28.35;15.00;;;;;;;;;;5022198;28;20057;-53
2021/01/08 06:44:54;;;;;;;34.95;16.70;;;;;;;;;;5027197;28;20042;-55
2021/01/08 06:47:21;;;;;;;31.15;16.13;;;;;;;;;;5025943;28;20034;-50
2021/01/08 06:49:50;;;;;;;29.40;15.75;;;;;;;;;;5019979;28;20029;-55
2021/01/08 06:52:16;;;;;;;27.48;14.85;;;;;;;;;;5026438;28;20061;-55
2021/01/08 06:54:43;;;;;;;33.55;17.48;;;;;;;;;;5021472;28;20036;-53
2021/01/08 06:57:18;;;;;;;35.60;17.20;;;;;;;;;;5029042;28;20029;-50
2021/01/08 06:59:46;;;;;;;35.22;16.27;;;;;;;;;;5029309;28;20083;-54
2021/01/08 07:02:15;;;;;;;31.15;15.00;;;;;;;;;;5023784;28;20037;-51
2021/01/08 07:04:41;;;;;;;29.42;15.45;;;;;;;;;;5029704;28;20118;-53
2021/01/08 07:07:12;;;;;;;31.58;16.73;;;;;;;;;;5028735;28;20041;-50
2021/01/08 07:09:38;;;;;;;31.42;16.48;;;;;;;;;;5029573;28;20100;-55
2021/01/08 07:12:05;;;;;;;31.17;15.52;;;;;;;;;;5030518;28;20351;-53
2021/01/08 07:14:32;;;;;;;29.05;15.80;;;;;;;;;;5030358;28;20521;-53
2021/01/08 07:16:58;;;;;;;32.08;16.05;;;;;;;;;;5030296;28;20029;-50
2021/01/08 07:19:27;;;;;;;32.83;15.85;;;;;;;;;;5030033;28;20467;-57
2021/01/08 07:21:54;;;;;;;32.58;16.83;;;;;;;;;;5016557;28;20118;-54
2021/01/08 07:24:24;;;;;;;30.27;15.88;;;;;;;;;;5010479;28;20022;-50
2021/01/08 07:26:51;;;;;;;28.65;15.18;;;;;;;;;;5029627;28;20030;-52
2021/01/08 07:29:25;;;;;;;33.13;16.23;;;;;;;;;;5029368;28;20040;-54
2021/01/08 07:31:52;;;;;;;32.30;16.00;;;;;;;;;;5029480;28;20084;-53
2021/01/08 07:34:18;;;;;;;33.10;16.90;;;;;;;;;;5027107;28;20587;-54
2021/01/08 07:36:54;;;;;;;31.20;16.20;;;;;;;;;;5029337;28;20030;-52
2021/01/08 07:39:39;;;;;;;31.67;15.93;;;;;;;;;;5029268;28;20037;-56
2021/01/08 07:42:23;;;;;;;33.72;17.02;;;;;;;;;;5029099;28;20049;-55
2021/01/08 07:44:49;;;;;;;34.90;17.42;;;;;;;;;;5026562;28;20382;-53
2021/01/08 07:47:25;;;;;;;31.20;16.23;;;;;;;;;;5028875;28;20033;-54
2021/01/08 07:50:07;;;;;;;29.90;15.55;;;;;;;;;;5029018;28;20029;-55
2021/01/08 07:52:40;;;;;;;30.60;15.43;;;;;;;;;;5028391;28;20392;-51
2021/01/08 07:55:06;;;;;;;30.27;15.82;;;;;;;;;;5017897;28;20505;-54
2021/01/08 07:57:52;;;;;;;30.15;15.38;;;;;;;;;;5029962;28;20026;-56
2021/01/08 08:00:26;;;;;;;29.80;15.98;;;;;;;;;;5026063;28;20025;-52
2021/01/08 08:02:52;;;;;;;31.13;16.05;;;;;;;;;;5028638;28;20037;-55
2021/01/08 08:05:19;;;;;;;35.17;16.00;;;;;;;;;;5041532;28;20036;-52
2021/01/08 08:07:45;;;;;;;34.15;17.23;;;;;;;;;;5024923;28;20711;-52
2021/01/08 08:10:11;;;;;;;29.63;15.95;;;;;;;;;;5030888;28;20033;-49
2021/01/08 08:12:38;;;;;;;34.35;17.15;;;;;;;;;;5028170;28;20077;-55
2021/01/08 08:15:05;;;;;;;32.63;15.80;;;;;;;;;;5029822;28;20034;-53
2021/01/08 08:17:31;;;;;;;33.30;17.63;;;;;;;;;;5028814;28;20026;-51
2021/01/08 08:19:56;;;;;;;29.42;15.63;;;;;;;;;;5029131;28;20029;-54
2021/01/08 08:22:35;;;;;;;33.05;15.75;;;;;;;;;;5029362;28;20025;-51
2021/01/08 08:25:17;;;;;;;33.28;16.67;;;;;;;;;;5012621;28;20029;-53
2021/01/08 08:27:50;;;;;;;30.92;16.58;;;;;;;;;;5023770;28;20183;-56
2021/01/08 08:30:17;;;;;;;35.28;16.95;;;;;;;;;;5028793;28;20029;-53
2021/01/08 08:32:43;;;;;;;28.40;16.10;;;;;;;;;;5028443;28;20059;-55
2021/01/08 08:35:10;;;;;;;33.97;17.00;;;;;;;;;;5037755;28;20029;-50
2021/01/08 08:37:45;;;;;;;35.50;17.52;;;;;;;;;;5024596;28;20033;-53
2021/01/08 08:40:11;;;;;;;29.00;15.93;;;;;;;;;;5015839;28;20030;-50
2021/01/08 08:42:37;;;;;;;35.40;17.95;;;;;;;;;;5020503;28;20028;-56
2021/01/08 08:45:03;;;;;;;36.10;16.58;;;;;;;;;;5024963;28;20469;-56
2021/01/08 08:47:29;;;;;;;33.90;18.15;;;;;;;;;;5015608;28;20079;-53
2021/01/08 08:49:55;;;;;;;36.47;16.35;;;;;;;;;;5025010;28;20125;-55
2021/01/08 08:52:27;;;;;;;30.33;16.77;;;;;;;;;;5026770;28;20033;-55
2021/01/08 08:54:53;;;;;;;31.90;16.05;;;;;;;;;;5028470;28;20709;-52
2021/01/08 08:57:21;;;;;;;32.75;16.55;;;;;;;;;;5028160;28;20028;-52
2021/01/08 08:59:47;;;;;;;31.58;16.67;;;;;;;;;;5024968;28;20028;-53
2021/01/08 09:02:25;;;;;;;31.33;16.73;;;;;;;;;;5028797;28;20414;-51
2021/01/08 09:04:54;;;;;;;29.17;16.80;;;;;;;;;;5027917;28;20072;-50
2021/01/08 09:07:25;;;;;;;35.92;17.45;;;;;;;;;;5027992;28;20037;-51
2021/01/08 09:09:51;;;;;;;34.15;16.85;;;;;;;;;;5028063;28;20033;-54
2021/01/08 09:12:34;;;;;;;30.23;16.02;;;;;;;;;;5026659;28;20485;-53
2021/01/08 09:15:10;;;;;;;33.47;16.60;;;;;;;;;;5021807;28;20489;-51
2021/01/08 09:17:40;;;;;;;33.30;16.67;;;;;;;;;;5007267;28;20048;-51
2021/01/08 09:20:07;;;;;;;32.92;17.67;;;;;;;;;;5021504;28;20406;-51
2021/01/08 09:22:35;;;;;;;31.85;16.60;;;;;;;;;;5027253;28;20033;-54
2021/01/08 09:25:01;;;;;;;34.13;16.40;;;;;;;;;;5017417;28;20030;-54
2021/01/08 09:27:28;;;;;;;34.58;16.75;;;;;;;;;;5027523;28;20029;-52
2021/01/08 09:29:55;;;;;;;32.55;17.42;;;;;;;;;;5025818;28;20026;-53
2021/01/08 09:32:33;;;;;;;31.15;16.52;;;;;;;;;;5027691;28;20547;-53
2021/01/08 09:35:04;;;;;;;32.85;16.90;;;;;;;;;;5029578;28;20091;-55
2021/01/08 09:37:34;;;;;;;34.78;17.25;;;;;;;;;;5027398;28;20092;-53
2021/01/08 09:40:00;;;;;;;31.25;15.88;;;;;;;;;;5025642;28;20034;-53
2021/01/08 09:42:26;;;;;;;33.72;16.20;;;;;;;;;;5026675;28;20054;-51
2021/01/08 09:44:52;;;;;;;32.13;16.88;;;;;;;;;;5027241;28;20034;-54
2021/01/08 09:47:18;;;;;;;29.98;15.85;;;;;;;;;;5027141;28;20079;-50
2021/01/08 09:49:55;;;;;;;34.75;16.85;;;;;;;;;;5026380;28;20025;-55
2021/01/08 09:52:28;;;;;;;37.78;20.05;;;;;;;;;;5025128;28;20036;-51
2021/01/08 09:54:54;;;;;;;;;;;;;;;;;;5024933;28;20381;-55
2021/01/08 09:57:28;;;;;;;32.17;16.10;;;;;;;;;;5026285;28;19935;-55
2021/01/08 09:59:55;;;;;;;36.08;16.95;;;;;;;;;;5026123;28;20026;-57
2021/01/08 10:02:41;;;;;;;33.28;16.10;;;;;;;;;;5025090;28;20075;-56
2021/01/08 10:05:27;;;;;;;35.58;17.05;;;;;;;;;;5023853;28;20079;-54
2021/01/08 10:07:53;;;;;;;31.40;15.75;;;;;;;;;;5011781;28;20045;-55
2021/01/08 10:10:28;;;;;;;34.00;16.98;;;;;;;;;;5026994;28;20037;-51
2021/01/08 10:12:55;;;;;;;37.80;17.85;;;;;;;;;;5026343;28;20033;-51
2021/01/08 10:15:35;;;;;;;30.70;15.93;;;;;;;;;;5026650;28;20037;-54
2021/01/08 10:18:07;;;;;;;35.67;16.67;;;;;;;;;;5012522;28;20038;-55
2021/01/08 10:20:40;;;;;;;35.03;17.80;;;;;;;;;;5026471;28;20105;-57
2021/01/08 10:23:09;;;;;;;37.83;17.55;;;;;;;;;;5009449;28;20068;-53
2021/01/08 10:25:35;;;;;;;34.47;17.45;;;;;;;;;;5039826;28;20258;-54
2021/01/08 10:28:15;;;;;;;33.72;17.45;;;;;;;;;;5029628;28;20067;-52
2021/01/08 10:30:42;;;;;;;34.42;17.35;;;;;;;;;;5028184;28;20531;-53
2021/01/08 10:33:08;;;;;;;33.45;17.15;;;;;;;;;;5031631;28;20109;-56
2021/01/08 10:35:35;;;;;;;31.33;16.90;;;;;;;;;;5050565;28;20117;-58
2021/01/08 10:38:01;;;;;;;34.30;17.20;;;;;;;;;;5044333;28;20621;-52
2021/01/08 10:40:27;;;;;;;30.98;16.27;;;;;;;;;;5030897;28;20037;-54
2021/01/08 10:42:54;;;;;;;31.00;16.25;;;;;;;;;;5030110;28;20598;-52
2021/01/08 10:45:20;;;;;;;30.50;16.13;;;;;;;;;;5029926;28;20733;-52
2021/01/08 10:47:46;;;;;;;27.65;15.45;;;;;;;;;;5026727;28;20044;-50
2021/01/08 10:50:12;;;;;;;32.15;16.25;;;;;;;;;;5028598;28;20053;-55
2021/01/08 10:52:39;;;;;;;31.10;16.45;;;;;;;;;;5021122;28;20037;-53
2021/01/08 10:55:05;;;;;;;34.05;16.75;;;;;;;;;;5023507;28;20124;-57
2021/01/08 10:57:31;;;;;;;31.67;16.58;;;;;;;;;;5029299;28;20059;-52
2021/01/08 10:59:57;;;;;;;32.95;16.80;;;;;;;;;;5026675;28;20029;-50
2021/01/08 11:02:23;;;;;;;30.25;16.35;;;;;;;;;;5017667;28;20091;-54
2021/01/08 11:04:49;;;;;;;31.73;16.50;;;;;;;;;;5028897;28;20034;-56
2021/01/08 11:07:15;;;;;;;30.05;16.00;;;;;;;;;;5029479;28;20400;-56
2021/01/08 11:09:41;;;;;;;28.90;15.35;;;;;;;;;;5016839;28;20029;-55
2021/01/08 11:12:07;;;;;;;30.58;15.15;;;;;;;;;;5023960;28;20029;-56
2021/01/08 11:14:33;;;;;;;30.88;16.38;;;;;;;;;;5028793;28;20033;-53
2021/01/08 11:16:59;;;;;;;26.02;14.40;;;;;;;;;;5029455;28;20021;-55
2021/01/08 11:19:25;;;;;;;31.42;15.68;;;;;;;;;;5029490;28;20017;-52
2021/01/08 11:21:52;;;;;;;31.58;16.10;;;;;;;;;;5021380;28;20109;-53
2021/01/08 11:24:18;;;;;;;29.92;15.85;;;;;;;;;;5010289;28;20405;-54
2021/01/08 11:26:44;;;;;;;28.60;15.27;;;;;;;;;;5010489;28;20065;-52
2021/01/08 11:29:10;;;;;;;26.58;15.32;;;;;;;;;;5025613;28;20040;-54
2021/01/08 11:31:37;;;;;;;29.73;15.60;;;;;;;;;;5021767;28;20469;-54
2021/01/08 11:34:06;;;;;;;28.08;14.65;;;;;;;;;;5025831;28;20149;-57
2021/01/08 11:36:32;;;;;;;26.27;14.55;;;;;;;;;;5023357;28;20354;-54
2021/01/08 11:38:59;;;;;;;29.55;14.48;;;;;;;;;;5029422;28;20413;-56
2021/01/08 11:41:25;;;;;;;28.13;15.40;;;;;;;;;;5028874;28;20096;-54
2021/01/08 11:43:51;;;;;;;27.27;14.32;;;;;;;;;;5028529;28;20048;-52
2021/01/08 11:46:17;;;;;;;27.60;14.35;;;;;;;;;;5028697;28;20038;-53
2021/01/08 11:48:43;;;;;;;26.48;14.27;;;;;;;;;;5028472;28;20046;-51
2021/01/08 11:51:13;;;;;;;26.48;14.50;;;;;;;;;;5026275;28;20037;-52
2021/01/08 11:53:42;;;;;;;26.25;13.75;;;;;;;;;;5028124;28;20044;-56
2021/01/08 11:56:09;;;;;;;27.45;13.73;;;;;;;;;;5029297;28;20044;-52
2021/01/08 11:58:35;;;;;;;26.90;14.15;;;;;;;;;;5023900;28;20029;-56
2021/01/08 12:01:01;;;;;;;27.23;14.07;;;;;;;;;;5024545;28;20041;-55
2021/01/08 12:03:27;;;;;;;26.42;13.32;;;;;;;;;;5025999;28;20021;-52
2021/01/08 12:05:53;;;;;;;25.40;13.98;;;;;;;;;;5025644;28;20025;-57
2021/01/08 12:08:19;;;;;;;26.88;14.30;;;;;;;;;;5029142;28;20381;-55
2021/01/08 12:10:45;;;;;;;22.35;12.85;;;;;;;;;;5029952;28;20040;-55
2021/01/08 12:13:11;;;;;;;27.20;13.75;;;;;;;;;;5030032;28;20424;-54
2021/01/08 12:15:37;;;;;;;25.63;13.60;;;;;;;;;;5029655;28;20021;-52
2021/01/08 12:18:03;;;;;;;25.52;13.85;;;;;;;;;;5026378;28;20105;-56
2021/01/08 12:20:29;;;;;;;25.42;13.23;;;;;;;;;;5027843;28;20029;-50
2021/01/08 12:22:55;;;;;;;23.38;12.88;;;;;;;;;;5029632;28;20033;-56
2021/01/08 12:25:21;;;;;;;27.40;14.30;;;;;;;;;;5029190;28;20030;-55
2021/01/08 12:27:47;;;;;;;25.27;14.40;;;;;;;;;;5029319;28;20029;-57
2021/01/08 12:30:13;;;;;;;27.10;13.45;;;;;;;;;;5026681;28;20401;-54
2021/01/08 12:32:40;;;;;;;24.17;13.60;;;;;;;;;;5028353;28;20033;-54
2021/01/08 12:35:06;;;;;;;26.15;14.25;;;;;;;;;;5030431;28;20045;-55
2021/01/08 12:37:32;;;;;;;23.63;13.45;;;;;;;;;;5029777;28;20033;-56
2021/01/08 12:39:58;;;;;;;23.02;12.07;;;;;;;;;;5029548;28;20053;-57
2021/01/08 12:42:24;;;;;;;22.60;12.88;;;;;;;;;;5028464;28;20121;-55
2021/01/08 12:44:50;;;;;;;24.75;12.77;;;;;;;;;;5029196;28;20033;-57
2021/01/08 12:47:16;;;;;;;23.10;11.95;;;;;;;;;;5029285;28;20132;-54
2021/01/08 12:49:42;;;;;;;23.52;12.68;;;;;;;;;;5026614;28;20030;-54
2021/01/08 12:52:09;;;;;;;22.88;12.18;;;;;;;;;;5027288;28;20037;-56
2021/01/08 12:54:35;;;;;;;24.60;12.65;;;;;;;;;;5021907;28;20083;-51
2021/01/08 12:57:01;;;;;;;21.80;11.18;;;;;;;;;;5017965;28;20042;-54
2021/01/08 12:59:27;;;;;;;22.05;12.35;;;;;;;;;;5028477;28;20036;-54
2021/01/08 13:01:59;;;;;;;21.30;10.95;;;;;;;;;;5028640;28;20032;-55
2021/01/08 13:04:25;;;;;;;21.30;11.40;;;;;;;;;;5027706;28;20132;-57
2021/01/08 13:06:51;;;;;;;22.05;11.88;;;;;;;;;;5025890;28;20041;-53
2021/01/08 13:09:17;;;;;;;22.08;11.20;;;;;;;;;;5022364;28;20398;-57
2021/01/08 13:11:43;;;;;;;22.05;11.27;;;;;;;;;;5026747;28;20064;-53
2021/01/08 13:14:09;;;;;;;23.30;11.30;;;;;;;;;;5029171;28;20060;-57
2021/01/08 13:16:35;;;;;;;23.60;11.65;;;;;;;;;;5035988;28;20022;-53
2021/01/08 13:19:01;;;;;;;20.90;11.13;;;;;;;;;;5026730;28;20033;-54
2021/01/08 13:21:27;;;;;;;19.85;10.40;;;;;;;;;;5023547;28;20037;-53
2021/01/08 13:23:52;;;;;;;23.10;11.90;;;;;;;;;;5026645;28;20033;-53
2021/01/08 13:26:25;;;;;;;23.52;12.00;;;;;;;;;;5027007;28;20026;-55
2021/01/08 13:28:52;;;;;;;20.70;11.27;;;;;;;;;;5023490;28;20039;-55
2021/01/08 13:31:21;;;;;;;22.42;11.25;;;;;;;;;;5018363;28;20095;-53
2021/01/08 13:33:47;;;;;;;25.50;12.13;;;;;;;;;;5031478;28;20036;-54
2021/01/08 13:36:13;;;;;;;23.38;11.57;;;;;;;;;;5027133;28;20029;-55
2021/01/08 13:38:39;;;;;;;21.50;11.18;;;;;;;;;;5028830;28;20060;-57
2021/01/08 13:41:05;;;;;;;24.48;12.93;;;;;;;;;;5032081;28;20477;-55
2021/01/08 13:43:34;;;;;;;24.13;12.07;;;;;;;;;;5027078;28;20029;-54
2021/01/08 13:46:01;;;;;;;22.38;12.65;;;;;;;;;;5027601;28;20112;-55
2021/01/08 13:48:27;;;;;;;25.98;12.60;;;;;;;;;;5025953;28;20021;-55
2021/01/08 13:50:53;;;;;;;24.25;12.75;;;;;;;;;;5021562;28;20598;-55
2021/01/08 13:53:19;;;;;;;25.33;12.20;;;;;;;;;;5023506;28;20091;-51
2021/01/08 13:55:45;;;;;;;27.27;12.13;;;;;;;;;;5020148;28;20067;-56
2021/01/08 13:58:11;;;;;;;21.42;11.77;;;;;;;;;;5027726;28;20464;-54
2021/01/08 14:00:37;;;;;;;27.10;12.73;;;;;;;;;;5026275;28;20441;-53
2021/01/08 14:03:03;;;;;;;26.40;11.48;;;;;;;;;;5026384;28;20029;-53
2021/01/08 14:05:29;;;;;;;25.23;12.18;;;;;;;;;;5025992;28;20025;-52
2021/01/08 14:07:55;;;;;;;26.15;11.35;;;;;;;;;;5025441;28;20503;-58
2021/01/08 14:10:21;;;;;;;27.52;12.52;;;;;;;;;;5023351;28;20606;-52
2021/01/08 14:12:47;;;;;;;23.08;11.68;;;;;;;;;;5023708;28;20517;-52
2021/01/08 14:15:17;;;;;;;26.08;11.95;;;;;;;;;;5025524;28;20132;-53
2021/01/08 14:17:43;;;;;;;26.15;11.88;;;;;;;;;;5024990;28;20030;-51
2021/01/08 14:20:09;;;;;;;24.40;12.07;;;;;;;;;;5026849;28;20060;-51